PWSweather.com
Personal Weather Stations
Station Observations
AS787
Cloppers Mill East, Germantown, MD 20874-2154

Cloppers Mill EastGermantown, MD 20874-2154

Lat: 39.1522, Lon: -77.2679

Elevation: 318

Station Type: 1-Wire

http://www.cloppermillweather.org/

High Low Average
Temperature 44.6°F7.0°C 19.7°F-6.8°C 32.1°F0.1°C
Dew Point 32.8°F0.4°C 17.8°F-7.9°C 26.0°F-3.3°C
Winds 2.0 mph 3.2 kmh Calm Calm Calm SCalm S
Wind Gusts 9.0 mph14.5 kmh -- 2.0 mph3.2 kmh
Humidity 94% 59% 79%
Pressure 30.53 in1033.9 mb 30.31 in1026.4 mb -
Precipitation 0.00 in0.0 mm - -
Hour Temp Dew Point Humidity Winds Wind Gusts Pressure Precip Precip Rate Daily Precip Total
12:14 AM 21.7°F-5.7°C 19.0°F-7.2°C 89% Calm Calm -- 30.48 in1032.2 mb 0.00 in0.0 mm 0.00 in0.0 mm 0.00 in0.0 mm
12:44 AM 21.6°F-5.8°C 19.1°F-7.2°C 90% Calm Calm -- 30.47 in1031.8 mb 0.00 in0.0 mm 0.00 in0.0 mm 0.00 in0.0 mm
01:14 AM 21.5°F-5.8°C 19.3°F-7.1°C 91% Calm Calm -- 30.47 in1031.8 mb 0.00 in0.0 mm 0.00 in0.0 mm 0.00 in0.0 mm
01:44 AM 21.0°F-6.1°C 18.8°F-7.3°C 91% Calm Calm -- 30.48 in1032.2 mb 0.00 in0.0 mm 0.00 in0.0 mm 0.00 in0.0 mm
02:14 AM 20.5°F-6.4°C 18.3°F-7.6°C 91% Calm Calm -- 30.48 in1032.2 mb 0.00 in0.0 mm 0.00 in0.0 mm 0.00 in0.0 mm
02:44 AM 20.4°F-6.4°C 18.4°F-7.6°C 92% Calm Calm -- 30.47 in1031.8 mb 0.00 in0.0 mm 0.00 in0.0 mm 0.00 in0.0 mm
03:14 AM 20.1°F-6.6°C 18.1°F-7.7°C 92% Calm Calm -- 30.48 in1032.2 mb 0.00 in0.0 mm 0.00 in0.0 mm 0.00 in0.0 mm
03:44 AM 20.1°F-6.6°C 18.1°F-7.7°C 92% Calm Calm -- 30.48 in1032.2 mb 0.00 in0.0 mm 0.00 in0.0 mm 0.00 in0.0 mm
04:14 AM 19.7°F-6.8°C 17.8°F-7.9°C 92% Calm Calm -- 30.48 in1032.2 mb 0.00 in0.0 mm 0.00 in0.0 mm 0.00 in0.0 mm
04:44 AM 19.7°F-6.8°C 17.8°F-7.9°C 92% Calm Calm -- 30.48 in1032.2 mb 0.00 in0.0 mm 0.00 in0.0 mm 0.00 in0.0 mm
05:14 AM 19.9°F-6.7°C 18.2°F-7.7°C 93% Calm Calm -- 30.48 in1032.2 mb 0.00 in0.0 mm 0.00 in0.0 mm 0.00 in0.0 mm
05:44 AM 19.7°F-6.8°C 18.0°F-7.8°C 93% Calm Calm -- 30.48 in1032.2 mb 0.00 in0.0 mm 0.00 in0.0 mm 0.00 in0.0 mm
06:14 AM 19.8°F-6.8°C 18.1°F-7.7°C 93% Calm Calm -- 30.48 in1032.2 mb 0.00 in0.0 mm 0.00 in0.0 mm 0.00 in0.0 mm
06:44 AM 19.9°F-6.7°C 18.2°F-7.7°C 93% Calm Calm -- 30.49 in1032.5 mb 0.00 in0.0 mm 0.00 in0.0 mm 0.00 in0.0 mm
07:14 AM 19.8°F-6.8°C 18.1°F-7.7°C 93% Calm Calm -- 30.50 in1032.8 mb 0.00 in0.0 mm 0.00 in0.0 mm 0.00 in0.0 mm
07:44 AM 20.1°F-6.6°C 18.4°F-7.6°C 93% Calm Calm -- 30.51 in1033.2 mb 0.00 in0.0 mm 0.00 in0.0 mm 0.00 in0.0 mm
08:14 AM 20.0°F-6.7°C 18.3°F-7.6°C 93% Calm Calm -- 30.51 in1033.2 mb 0.00 in0.0 mm 0.00 in0.0 mm 0.00 in0.0 mm
08:44 AM 20.5°F-6.4°C 18.8°F-7.3°C 93% Calm Calm -- 30.51 in1033.2 mb 0.00 in0.0 mm 0.00 in0.0 mm 0.00 in0.0 mm
09:14 AM 21.7°F-5.7°C 19.9°F-6.7°C 93% Calm Calm -- 30.53 in1033.9 mb 0.00 in0.0 mm 0.00 in0.0 mm 0.00 in0.0 mm
09:44 AM 23.4°F-4.8°C 22.0°F-5.6°C 94% Calm Calm -- 30.53 in1033.9 mb 0.00 in0.0 mm 0.00 in0.0 mm 0.00 in0.0 mm
10:14 AM 26.1°F-3.3°C 24.6°F-4.1°C 94% Calm Calm -- 30.52 in1033.5 mb 0.00 in0.0 mm 0.00 in0.0 mm 0.00 in0.0 mm
10:44 AM 30.5°F-0.8°C 26.0°F-3.3°C 83% 0.6 mph W1.0 kmh W 5.0 mph8.0 kmh 30.52 in1033.5 mb 0.00 in0.0 mm 0.00 in0.0 mm 0.00 in0.0 mm
11:14 AM 33.1°F0.6°C 25.1°F-3.8°C 72% Calm Calm -- 30.52 in1033.5 mb 0.00 in0.0 mm 0.00 in0.0 mm 0.00 in0.0 mm
11:44 AM 34.5°F1.4°C 24.6°F-4.1°C 67% 1.1 mph SW1.8 kmh SW 5.0 mph8.0 kmh 30.53 in1033.9 mb 0.00 in0.0 mm 0.00 in0.0 mm 0.00 in0.0 mm
12:14 PM 36.1°F2.3°C 26.9°F-2.8°C 69% 0.8 mph SW1.3 kmh SW 3.0 mph4.8 kmh 30.52 in1033.5 mb 0.00 in0.0 mm 0.00 in0.0 mm 0.00 in0.0 mm
12:44 PM 37.0°F2.8°C 28.4°F-2.0°C 71% 0.3 mph SW0.5 kmh SW 6.0 mph9.7 kmh 30.50 in1032.8 mb 0.00 in0.0 mm 0.00 in0.0 mm 0.00 in0.0 mm
01:14 PM 38.0°F3.3°C 29.0°F-1.7°C 70% 0.4 mph WSW0.6 kmh WSW 5.0 mph8.0 kmh 30.48 in1032.2 mb 0.00 in0.0 mm 0.00 in0.0 mm 0.00 in0.0 mm
01:44 PM 39.2°F4.0°C 28.9°F-1.7°C 66% 1.0 mph SW1.6 kmh SW 6.0 mph9.7 kmh 30.45 in1031.2 mb 0.00 in0.0 mm 0.00 in0.0 mm 0.00 in0.0 mm
02:14 PM 39.9°F4.4°C 28.9°F-1.7°C 64% 2.0 mph SW3.2 kmh SW 5.0 mph8.0 kmh 30.43 in1030.5 mb 0.00 in0.0 mm 0.00 in0.0 mm 0.00 in0.0 mm
02:44 PM 41.5°F5.3°C 29.6°F-1.3°C 62% 1.3 mph WSW2.1 kmh WSW 5.0 mph8.0 kmh 30.42 in1030.1 mb 0.00 in0.0 mm 0.00 in0.0 mm 0.00 in0.0 mm
03:14 PM 42.9°F6.1°C 30.3°F-0.9°C 61% 0.7 mph WSW1.1 kmh WSW 5.0 mph8.0 kmh 30.39 in1029.1 mb 0.00 in0.0 mm 0.00 in0.0 mm 0.00 in0.0 mm
03:44 PM 43.2°F6.2°C 30.0°F-1.1°C 59% 0.5 mph SW0.8 kmh SW 9.0 mph14.5 kmh 30.38 in1028.8 mb 0.00 in0.0 mm 0.00 in0.0 mm 0.00 in0.0 mm
04:14 PM 43.7°F6.5°C 31.0°F-0.6°C 60% 1.6 mph SW2.6 kmh SW 8.0 mph12.9 kmh 30.36 in1028.1 mb 0.00 in0.0 mm 0.00 in0.0 mm 0.00 in0.0 mm
04:44 PM 44.4°F6.9°C 31.6°F-0.2°C 61% 0.7 mph SW1.1 kmh SW 6.0 mph9.7 kmh 30.36 in1028.1 mb 0.00 in0.0 mm 0.00 in0.0 mm 0.00 in0.0 mm
05:14 PM 44.6°F7.0°C 32.1°F0.1°C 61% 0.3 mph SW0.5 kmh SW 4.0 mph6.4 kmh 30.36 in1028.1 mb 0.00 in0.0 mm 0.00 in0.0 mm 0.00 in0.0 mm
05:44 PM 44.0°F6.7°C 32.3°F0.2°C 63% 0.7 mph WSW1.1 kmh WSW 5.0 mph8.0 kmh 30.35 in1027.8 mb 0.00 in0.0 mm 0.00 in0.0 mm 0.00 in0.0 mm
06:14 PM 43.5°F6.4°C 32.2°F0.1°C 64% 0.4 mph SW0.6 kmh SW 4.0 mph6.4 kmh 30.34 in1027.4 mb 0.00 in0.0 mm 0.00 in0.0 mm 0.00 in0.0 mm
06:44 PM 43.0°F6.1°C 32.4°F0.2°C 66% 0.5 mph WSW0.8 kmh WSW 3.0 mph4.8 kmh 30.34 in1027.4 mb 0.00 in0.0 mm 0.00 in0.0 mm 0.00 in0.0 mm
07:14 PM 41.8°F5.4°C 32.3°F0.2°C 69% 0.2 mph SW0.3 kmh SW 2.0 mph3.2 kmh 30.33 in1027.1 mb 0.00 in0.0 mm 0.00 in0.0 mm 0.00 in0.0 mm
07:44 PM 41.4°F5.2°C 32.0°F0.0°C 69% Calm Calm -- 30.33 in1027.1 mb 0.00 in0.0 mm 0.00 in0.0 mm 0.00 in0.0 mm
08:14 PM 39.6°F4.2°C 31.7°F-0.2°C 73% Calm Calm -- 30.34 in1027.4 mb 0.00 in0.0 mm 0.00 in0.0 mm 0.00 in0.0 mm
08:44 PM 39.9°F4.4°C 32.2°F0.1°C 74% 0.4 mph WSW0.6 kmh WSW 3.0 mph4.8 kmh 30.34 in1027.4 mb 0.00 in0.0 mm 0.00 in0.0 mm 0.00 in0.0 mm
09:14 PM 40.0°F4.4°C 32.7°F0.4°C 75% Calm Calm 5.0 mph8.0 kmh 30.34 in1027.4 mb 0.00 in0.0 mm 0.00 in0.0 mm 0.00 in0.0 mm
09:44 PM 38.8°F3.8°C 32.2°F0.1°C 77% Calm Calm -- 30.34 in1027.4 mb 0.00 in0.0 mm 0.00 in0.0 mm 0.00 in0.0 mm
10:14 PM 38.4°F3.6°C 32.4°F0.2°C 79% 0.1 mph WSW0.2 kmh WSW 1.0 mph1.6 kmh 30.34 in1027.4 mb 0.00 in0.0 mm 0.00 in0.0 mm 0.00 in0.0 mm
10:44 PM 38.7°F3.7°C 32.8°F0.4°C 79% 0.3 mph W0.5 kmh W 3.0 mph4.8 kmh 30.34 in1027.4 mb 0.00 in0.0 mm 0.00 in0.0 mm 0.00 in0.0 mm
11:14 PM 38.3°F3.5°C 32.6°F0.3°C 80% Calm Calm 1.0 mph1.6 kmh 30.33 in1027.1 mb 0.00 in0.0 mm 0.00 in0.0 mm 0.00 in0.0 mm
11:44 PM 38.4°F3.6°C 32.8°F0.4°C 80% 0.1 mph W0.2 kmh W 3.0 mph4.8 kmh 30.33 in1027.1 mb 0.00 in0.0 mm 0.00 in0.0 mm 0.00 in0.0 mm